sensor_id;sensor_type;location;lat;lon;timestamp;temperature;humidity
47857;DHT22;33618;49.972;8.242;2022-09-12T00:01:24;15.00;99.90
47857;DHT22;33618;49.972;8.242;2022-09-12T00:04:10;14.90;99.90
47857;DHT22;33618;49.972;8.242;2022-09-12T00:06:55;15.00;99.90
47857;DHT22;33618;49.972;8.242;2022-09-12T00:09:41;14.90;99.90
47857;DHT22;33618;49.972;8.242;2022-09-12T00:12:26;14.80;99.90
47857;DHT22;33618;49.972;8.242;2022-09-12T00:15:12;14.80;99.90
47857;DHT22;33618;49.972;8.242;2022-09-12T00:17:57;14.70;99.90
47857;DHT22;33618;49.972;8.242;2022-09-12T00:20:44;14.60;99.90
47857;DHT22;33618;49.972;8.242;2022-09-12T00:35:47;14.60;99.90
47857;DHT22;33618;49.972;8.242;2022-09-12T00:38:32;14.50;99.90
47857;DHT22;33618;49.972;8.242;2022-09-12T00:41:24;14.50;99.90
47857;DHT22;33618;49.972;8.242;2022-09-12T01:16:25;14.20;99.90
47857;DHT22;33618;49.972;8.242;2022-09-12T01:25:59;14.10;99.90
47857;DHT22;33618;49.972;8.242;2022-09-12T01:28:54;14.20;99.90
47857;DHT22;33618;49.972;8.242;2022-09-12T01:32:05;14.20;99.90
47857;DHT22;33618;49.972;8.242;2022-09-12T01:41:00;14.00;99.90
47857;DHT22;33618;49.972;8.242;2022-09-12T01:47:40;14.00;99.90
47857;DHT22;33618;49.972;8.242;2022-09-12T01:50:36;14.10;99.90
47857;DHT22;33618;49.972;8.242;2022-09-12T01:53:28;14.00;99.90
47857;DHT22;33618;49.972;8.242;2022-09-12T01:56:27;13.90;99.90
47857;DHT22;33618;49.972;8.242;2022-09-12T01:59:17;13.90;99.90
47857;DHT22;33618;49.972;8.242;2022-09-12T02:02:21;13.80;99.90
47857;DHT22;33618;49.972;8.242;2022-09-12T02:08:18;13.90;99.90
47857;DHT22;33618;49.972;8.242;2022-09-12T02:11:10;13.80;99.90
47857;DHT22;33618;49.972;8.242;2022-09-12T02:14:22;13.80;99.90
47857;DHT22;33618;49.972;8.242;2022-09-12T02:17:15;13.80;99.90
47857;DHT22;33618;49.972;8.242;2022-09-12T02:20:22;13.80;99.90
47857;DHT22;33618;49.972;8.242;2022-09-12T02:23:30;13.80;99.90
47857;DHT22;33618;49.972;8.242;2022-09-12T02:26:36;13.80;99.90
47857;DHT22;33618;49.972;8.242;2022-09-12T02:29:24;13.90;99.90
47857;DHT22;33618;49.972;8.242;2022-09-12T02:32:44;13.80;99.90
47857;DHT22;33618;49.972;8.242;2022-09-12T02:35:53;13.80;99.90
47857;DHT22;33618;49.972;8.242;2022-09-12T02:38:43;13.90;99.90
47857;DHT22;33618;49.972;8.242;2022-09-12T02:41:30;13.80;99.90
47857;DHT22;33618;49.972;8.242;2022-09-12T02:44:15;13.80;99.90
47857;DHT22;33618;49.972;8.242;2022-09-12T02:54:43;13.80;99.90
47857;DHT22;33618;49.972;8.242;2022-09-12T02:57:29;13.70;99.90
47857;DHT22;33618;49.972;8.242;2022-09-12T03:00:14;13.60;99.90
47857;DHT22;33618;49.972;8.242;2022-09-12T03:05:58;13.50;99.90
47857;DHT22;33618;49.972;8.242;2022-09-12T03:08:56;13.50;99.90
47857;DHT22;33618;49.972;8.242;2022-09-12T03:29:47;13.40;99.90
47857;DHT22;33618;49.972;8.242;2022-09-12T03:32:45;13.40;99.90
47857;DHT22;33618;49.972;8.242;2022-09-12T03:35:31;13.30;99.90
47857;DHT22;33618;49.972;8.242;2022-09-12T03:41:59;13.30;99.90
47857;DHT22;33618;49.972;8.242;2022-09-12T03:44:45;13.20;99.90
47857;DHT22;33618;49.972;8.242;2022-09-12T03:47:31;13.20;99.90
47857;DHT22;33618;49.972;8.242;2022-09-12T03:50:16;13.20;99.90
47857;DHT22;33618;49.972;8.242;2022-09-12T03:53:02;13.20;99.90
47857;DHT22;33618;49.972;8.242;2022-09-12T03:55:48;13.20;99.90
47857;DHT22;33618;49.972;8.242;2022-09-12T03:58:34;13.10;99.90
47857;DHT22;33618;49.972;8.242;2022-09-12T04:01:20;13.10;99.90
47857;DHT22;33618;49.972;8.242;2022-09-12T04:04:07;13.00;99.90
47857;DHT22;33618;49.972;8.242;2022-09-12T04:06:52;13.00;99.90
47857;DHT22;33618;49.972;8.242;2022-09-12T04:09:38;12.90;99.90
47857;DHT22;33618;49.972;8.242;2022-09-12T04:12:23;12.90;99.90
47857;DHT22;33618;49.972;8.242;2022-09-12T04:15:09;12.80;99.90
47857;DHT22;33618;49.972;8.242;2022-09-12T04:17:55;12.80;99.90
47857;DHT22;33618;49.972;8.242;2022-09-12T04:20:40;13.00;99.90
47857;DHT22;33618;49.972;8.242;2022-09-12T04:23:26;13.00;99.90
47857;DHT22;33618;49.972;8.242;2022-09-12T04:26:13;13.10;99.90
47857;DHT22;33618;49.972;8.242;2022-09-12T04:28:59;13.10;99.90
47857;DHT22;33618;49.972;8.242;2022-09-12T04:31:44;13.10;99.90
47857;DHT22;33618;49.972;8.242;2022-09-12T04:34:30;12.90;99.90
47857;DHT22;33618;49.972;8.242;2022-09-12T04:37:17;12.80;99.90
47857;DHT22;33618;49.972;8.242;2022-09-12T04:40:03;12.80;99.90
47857;DHT22;33618;49.972;8.242;2022-09-12T04:42:48;12.80;99.90
47857;DHT22;33618;49.972;8.242;2022-09-12T04:45:33;12.70;99.90
47857;DHT22;33618;49.972;8.242;2022-09-12T04:48:19;12.70;99.90
47857;DHT22;33618;49.972;8.242;2022-09-12T04:54:46;12.70;99.90
47857;DHT22;33618;49.972;8.242;2022-09-12T04:57:32;12.60;99.90
47857;DHT22;33618;49.972;8.242;2022-09-12T05:00:17;12.60;99.90
47857;DHT22;33618;49.972;8.242;2022-09-12T05:03:03;12.70;99.90
47857;DHT22;33618;49.972;8.242;2022-09-12T05:05:48;12.80;99.90
47857;DHT22;33618;49.972;8.242;2022-09-12T05:08:40;12.80;99.90
47857;DHT22;33618;49.972;8.242;2022-09-12T05:11:28;12.80;99.90
47857;DHT22;33618;49.972;8.242;2022-09-12T05:14:34;12.80;99.90
47857;DHT22;33618;49.972;8.242;2022-09-12T05:17:19;12.80;99.90
47857;DHT22;33618;49.972;8.242;2022-09-12T05:20:05;12.80;99.90
47857;DHT22;33618;49.972;8.242;2022-09-12T05:22:51;12.90;99.90
47857;DHT22;33618;49.972;8.242;2022-09-12T05:25:36;12.90;99.90
47857;DHT22;33618;49.972;8.242;2022-09-12T05:28:24;12.90;99.90
47857;DHT22;33618;49.972;8.242;2022-09-12T05:31:12;13.00;99.90
47857;DHT22;33618;49.972;8.242;2022-09-12T05:33:57;13.00;99.90
47857;DHT22;33618;49.972;8.242;2022-09-12T05:36:43;13.00;99.90
47857;DHT22;33618;49.972;8.242;2022-09-12T05:39:28;13.10;99.90
47857;DHT22;33618;49.972;8.242;2022-09-12T05:42:14;13.20;99.90
47857;DHT22;33618;49.972;8.242;2022-09-12T05:44:59;13.30;99.90
47857;DHT22;33618;49.972;8.242;2022-09-12T05:47:45;13.30;99.90
47857;DHT22;33618;49.972;8.242;2022-09-12T05:50:31;13.30;99.90
47857;DHT22;33618;49.972;8.242;2022-09-12T05:53:17;13.40;99.90
47857;DHT22;33618;49.972;8.242;2022-09-12T05:56:12;13.40;99.90
47857;DHT22;33618;49.972;8.242;2022-09-12T05:58:58;13.50;99.90
47857;DHT22;33618;49.972;8.242;2022-09-12T06:01:44;13.60;99.90
47857;DHT22;33618;49.972;8.242;2022-09-12T06:04:29;13.60;99.90
47857;DHT22;33618;49.972;8.242;2022-09-12T06:07:15;13.60;99.90
47857;DHT22;33618;49.972;8.242;2022-09-12T06:10:01;13.70;99.90
47857;DHT22;33618;49.972;8.242;2022-09-12T06:12:47;13.70;99.90
47857;DHT22;33618;49.972;8.242;2022-09-12T06:15:33;13.80;99.90
47857;DHT22;33618;49.972;8.242;2022-09-12T06:18:19;13.90;99.90
47857;DHT22;33618;49.972;8.242;2022-09-12T06:21:10;14.00;99.90
47857;DHT22;33618;49.972;8.242;2022-09-12T06:23:57;14.10;99.90
47857;DHT22;33618;49.972;8.242;2022-09-12T06:26:43;14.20;99.90
47857;DHT22;33618;49.972;8.242;2022-09-12T06:29:29;14.30;99.90
47857;DHT22;33618;49.972;8.242;2022-09-12T06:32:17;14.40;99.90
47857;DHT22;33618;49.972;8.242;2022-09-12T06:35:02;14.50;99.90
47857;DHT22;33618;49.972;8.242;2022-09-12T06:37:49;14.60;99.90
47857;DHT22;33618;49.972;8.242;2022-09-12T06:40:40;14.70;99.90
47857;DHT22;33618;49.972;8.242;2022-09-12T06:43:28;14.80;99.90
47857;DHT22;33618;49.972;8.242;2022-09-12T06:46:14;14.90;99.90
47857;DHT22;33618;49.972;8.242;2022-09-12T06:49:00;15.00;99.90
47857;DHT22;33618;49.972;8.242;2022-09-12T06:59:27;15.20;99.90
47857;DHT22;33618;49.972;8.242;2022-09-12T07:02:13;15.30;99.90
47857;DHT22;33618;49.972;8.242;2022-09-12T07:04:59;15.40;99.90
47857;DHT22;33618;49.972;8.242;2022-09-12T07:07:45;15.50;99.90
47857;DHT22;33618;49.972;8.242;2022-09-12T07:10:31;15.60;99.90
47857;DHT22;33618;49.972;8.242;2022-09-12T07:13:16;15.70;99.90
47857;DHT22;33618;49.972;8.242;2022-09-12T07:16:03;15.80;99.90
47857;DHT22;33618;49.972;8.242;2022-09-12T07:18:51;15.80;99.90
47857;DHT22;33618;49.972;8.242;2022-09-12T07:21:37;15.90;99.90
47857;DHT22;33618;49.972;8.242;2022-09-12T07:24:24;15.90;99.90
47857;DHT22;33618;49.972;8.242;2022-09-12T07:37:41;16.00;99.90
47857;DHT22;33618;49.972;8.242;2022-09-12T07:40:26;16.30;99.90
47857;DHT22;33618;49.972;8.242;2022-09-12T07:43:12;16.40;99.90
47857;DHT22;33618;49.972;8.242;2022-09-12T07:45:57;16.50;99.90
47857;DHT22;33618;49.972;8.242;2022-09-12T07:48:43;16.60;99.90
47857;DHT22;33618;49.972;8.242;2022-09-12T07:55:07;16.70;99.90
47857;DHT22;33618;49.972;8.242;2022-09-12T07:57:53;16.80;99.90
47857;DHT22;33618;49.972;8.242;2022-09-12T08:00:38;16.90;99.90
47857;DHT22;33618;49.972;8.242;2022-09-12T08:03:25;16.90;99.90
47857;DHT22;33618;49.972;8.242;2022-09-12T08:06:12;16.90;99.90
47857;DHT22;33618;49.972;8.242;2022-09-12T08:09:01;17.10;99.90
47857;DHT22;33618;49.972;8.242;2022-09-12T08:11:46;17.20;99.90
47857;DHT22;33618;49.972;8.242;2022-09-12T08:14:32;17.30;99.90
47857;DHT22;33618;49.972;8.242;2022-09-12T08:17:18;17.40;99.90
47857;DHT22;33618;49.972;8.242;2022-09-12T08:20:03;17.50;99.90
47857;DHT22;33618;49.972;8.242;2022-09-12T08:22:49;17.70;99.90
47857;DHT22;33618;49.972;8.242;2022-09-12T08:25:35;17.80;99.90
47857;DHT22;33618;49.972;8.242;2022-09-12T08:28:20;17.90;99.90
47857;DHT22;33618;49.972;8.242;2022-09-12T08:31:07;18.00;99.90
47857;DHT22;33618;49.972;8.242;2022-09-12T08:33:57;18.30;99.90
47857;DHT22;33618;49.972;8.242;2022-09-12T08:36:42;18.40;99.90
47857;DHT22;33618;49.972;8.242;2022-09-12T08:39:28;18.90;99.90
47857;DHT22;33618;49.972;8.242;2022-09-12T08:42:46;19.50;99.90
47857;DHT22;33618;49.972;8.242;2022-09-12T08:45:45;20.00;99.90
47857;DHT22;33618;49.972;8.242;2022-09-12T08:48:34;21.20;99.90
47857;DHT22;33618;49.972;8.242;2022-09-12T08:55:04;22.50;97.70
47857;DHT22;33618;49.972;8.242;2022-09-12T08:57:51;23.30;96.10
47857;DHT22;33618;49.972;8.242;2022-09-12T09:00:42;23.20;95.60
47857;DHT22;33618;49.972;8.242;2022-09-12T09:10:22;23.20;94.80
47857;DHT22;33618;49.972;8.242;2022-09-12T09:16:38;23.60;94.30
47857;DHT22;33618;49.972;8.242;2022-09-12T09:19:39;24.10;93.90
47857;DHT22;33618;49.972;8.242;2022-09-12T09:22:30;24.30;92.60
47857;DHT22;33618;49.972;8.242;2022-09-12T09:25:43;24.40;92.60
47857;DHT22;33618;49.972;8.242;2022-09-12T09:28:45;25.00;91.80
47857;DHT22;33618;49.972;8.242;2022-09-12T09:31:38;24.90;91.70
47857;DHT22;33618;49.972;8.242;2022-09-12T09:34:27;24.60;91.80
47857;DHT22;33618;49.972;8.242;2022-09-12T09:37:20;24.90;91.60
47857;DHT22;33618;49.972;8.242;2022-09-12T09:43:14;25.00;90.90
47857;DHT22;33618;49.972;8.242;2022-09-12T09:46:04;25.10;90.30
47857;DHT22;33618;49.972;8.242;2022-09-12T09:48:50;25.30;90.90
47857;DHT22;33618;49.972;8.242;2022-09-12T09:55:22;25.80;88.70
47857;DHT22;33618;49.972;8.242;2022-09-12T09:58:09;25.50;87.90
47857;DHT22;33618;49.972;8.242;2022-09-12T10:01:05;25.60;88.70
47857;DHT22;33618;49.972;8.242;2022-09-12T10:03:53;25.60;88.40
47857;DHT22;33618;49.972;8.242;2022-09-12T10:06:39;25.50;88.30
47857;DHT22;33618;49.972;8.242;2022-09-12T10:09:33;25.40;89.20
47857;DHT22;33618;49.972;8.242;2022-09-12T10:12:26;25.80;88.70
47857;DHT22;33618;49.972;8.242;2022-09-12T10:15:24;25.80;86.10
47857;DHT22;33618;49.972;8.242;2022-09-12T10:18:38;26.20;86.80
47857;DHT22;33618;49.972;8.242;2022-09-12T10:27:22;26.50;83.90
47857;DHT22;33618;49.972;8.242;2022-09-12T10:30:17;26.50;81.90
47857;DHT22;33618;49.972;8.242;2022-09-12T10:33:06;26.40;81.90
47857;DHT22;33618;49.972;8.242;2022-09-12T10:35:53;26.40;81.30
47857;DHT22;33618;49.972;8.242;2022-09-12T10:38:56;26.80;81.30
47857;DHT22;33618;49.972;8.242;2022-09-12T10:41:43;27.10;81.30
47857;DHT22;33618;49.972;8.242;2022-09-12T10:44:32;27.20;79.40
47857;DHT22;33618;49.972;8.242;2022-09-12T10:47:22;26.90;79.40
47857;DHT22;33618;49.972;8.242;2022-09-12T11:01:03;26.70;75.90
47857;DHT22;33618;49.972;8.242;2022-09-12T11:10:02;28.10;73.20
47857;DHT22;33618;49.972;8.242;2022-09-12T11:31:13;29.00;69.40
47857;DHT22;33618;49.972;8.242;2022-09-12T11:34:07;29.00;68.70
47857;DHT22;33618;49.972;8.242;2022-09-12T11:40:19;29.70;67.60
47857;DHT22;33618;49.972;8.242;2022-09-12T11:55:43;29.20;65.60
47857;DHT22;33618;49.972;8.242;2022-09-12T11:58:31;29.30;65.00
47857;DHT22;33618;49.972;8.242;2022-09-12T12:01:24;29.40;65.20
47857;DHT22;33618;49.972;8.242;2022-09-12T12:04:11;29.40;64.70
47857;DHT22;33618;49.972;8.242;2022-09-12T12:07:05;29.20;64.40
47857;DHT22;33618;49.972;8.242;2022-09-12T12:09:51;29.40;64.10
47857;DHT22;33618;49.972;8.242;2022-09-12T12:12:37;29.40;64.30
47857;DHT22;33618;49.972;8.242;2022-09-12T12:15:23;29.40;64.80
47857;DHT22;33618;49.972;8.242;2022-09-12T12:18:18;29.50;65.40
47857;DHT22;33618;49.972;8.242;2022-09-12T12:21:36;29.80;63.40
47857;DHT22;33618;49.972;8.242;2022-09-12T12:24:25;29.60;63.80
47857;DHT22;33618;49.972;8.242;2022-09-12T12:38:44;30.20;63.80
47857;DHT22;33618;49.972;8.242;2022-09-12T12:50:26;30.80;62.10
47857;DHT22;33618;49.972;8.242;2022-09-12T13:04:02;31.30;60.90
47857;DHT22;33618;49.972;8.242;2022-09-12T13:07:04;31.70;60.90
47857;DHT22;33618;49.972;8.242;2022-09-12T13:09:53;31.80;60.30
47857;DHT22;33618;49.972;8.242;2022-09-12T13:12:45;31.60;60.20
47857;DHT22;33618;49.972;8.242;2022-09-12T13:18:39;30.60;59.30
47857;DHT22;33618;49.972;8.242;2022-09-12T13:21:25;30.30;60.30
47857;DHT22;33618;49.972;8.242;2022-09-12T13:24:15;30.30;59.20
47857;DHT22;33618;49.972;8.242;2022-09-12T13:27:01;30.90;60.10
47857;DHT22;33618;49.972;8.242;2022-09-12T13:30:14;31.10;60.30
47857;DHT22;33618;49.972;8.242;2022-09-12T13:45:27;30.00;58.80
47857;DHT22;33618;49.972;8.242;2022-09-12T13:48:17;30.20;57.80
47857;DHT22;33618;49.972;8.242;2022-09-12T13:51:04;30.70;59.80
47857;DHT22;33618;49.972;8.242;2022-09-12T13:53:52;31.50;58.70
47857;DHT22;33618;49.972;8.242;2022-09-12T13:56:47;31.60;59.30
47857;DHT22;33618;49.972;8.242;2022-09-12T14:03:55;31.40;57.40
47857;DHT22;33618;49.972;8.242;2022-09-12T14:07:22;31.70;58.60
47857;DHT22;33618;49.972;8.242;2022-09-12T14:10:06;31.90;57.80
47857;DHT22;33618;49.972;8.242;2022-09-12T14:12:52;31.80;56.90
47857;DHT22;33618;49.972;8.242;2022-09-12T14:15:44;31.60;57.90
47857;DHT22;33618;49.972;8.242;2022-09-12T14:18:33;31.80;58.10
47857;DHT22;33618;49.972;8.242;2022-09-12T14:24:14;33.10;57.40
47857;DHT22;33618;49.972;8.242;2022-09-12T14:27:00;33.00;57.00
47857;DHT22;33618;49.972;8.242;2022-09-12T14:29:46;33.10;56.50
47857;DHT22;33618;49.972;8.242;2022-09-12T14:32:32;32.70;55.80
47857;DHT22;33618;49.972;8.242;2022-09-12T14:35:18;32.60;56.90
47857;DHT22;33618;49.972;8.242;2022-09-12T14:38:33;32.20;55.00
47857;DHT22;33618;49.972;8.242;2022-09-12T14:41:28;31.80;56.20
47857;DHT22;33618;49.972;8.242;2022-09-12T14:44:23;31.70;55.80
47857;DHT22;33618;49.972;8.242;2022-09-12T14:47:19;31.50;57.00
47857;DHT22;33618;49.972;8.242;2022-09-12T14:50:22;31.20;56.60
47857;DHT22;33618;49.972;8.242;2022-09-12T14:56:08;31.30;56.30
47857;DHT22;33618;49.972;8.242;2022-09-12T15:06:37;31.30;56.10
47857;DHT22;33618;49.972;8.242;2022-09-12T15:09:23;31.60;56.80
47857;DHT22;33618;49.972;8.242;2022-09-12T15:12:10;31.50;56.10
47857;DHT22;33618;49.972;8.242;2022-09-12T15:15:18;31.20;56.40
47857;DHT22;33618;49.972;8.242;2022-09-12T15:18:05;30.50;56.50
47857;DHT22;33618;49.972;8.242;2022-09-12T15:20:59;30.60;56.90
47857;DHT22;33618;49.972;8.242;2022-09-12T15:23:47;31.10;56.90
47857;DHT22;33618;49.972;8.242;2022-09-12T15:26:33;30.50;57.10
47857;DHT22;33618;49.972;8.242;2022-09-12T15:29:19;30.90;57.20
47857;DHT22;33618;49.972;8.242;2022-09-12T15:32:05;31.20;57.00
47857;DHT22;33618;49.972;8.242;2022-09-12T15:34:56;31.10;57.20
47857;DHT22;33618;49.972;8.242;2022-09-12T15:37:42;31.30;57.60
47857;DHT22;33618;49.972;8.242;2022-09-12T15:40:28;31.40;57.10
47857;DHT22;33618;49.972;8.242;2022-09-12T15:43:39;31.70;56.60
47857;DHT22;33618;49.972;8.242;2022-09-12T15:46:25;31.80;56.80
47857;DHT22;33618;49.972;8.242;2022-09-12T15:49:11;31.90;56.60
47857;DHT22;33618;49.972;8.242;2022-09-12T15:51:59;32.10;57.00
47857;DHT22;33618;49.972;8.242;2022-09-12T15:54:44;32.10;56.80
47857;DHT22;33618;49.972;8.242;2022-09-12T15:57:30;32.10;56.20
47857;DHT22;33618;49.972;8.242;2022-09-12T16:03:57;32.40;56.70
47857;DHT22;33618;49.972;8.242;2022-09-12T16:06:43;32.00;55.50
47857;DHT22;33618;49.972;8.242;2022-09-12T16:09:28;31.70;54.90
47857;DHT22;33618;49.972;8.242;2022-09-12T16:12:14;31.70;55.30
47857;DHT22;33618;49.972;8.242;2022-09-12T16:15:00;31.50;55.00
47857;DHT22;33618;49.972;8.242;2022-09-12T16:17:45;31.40;55.20
47857;DHT22;33618;49.972;8.242;2022-09-12T16:20:31;31.30;54.80
47857;DHT22;33618;49.972;8.242;2022-09-12T16:23:17;31.10;55.70
47857;DHT22;33618;49.972;8.242;2022-09-12T16:26:04;30.40;56.30
47857;DHT22;33618;49.972;8.242;2022-09-12T16:28:57;30.00;56.20
47857;DHT22;33618;49.972;8.242;2022-09-12T16:31:43;30.10;57.20
47857;DHT22;33618;49.972;8.242;2022-09-12T16:34:29;30.20;57.60
47857;DHT22;33618;49.972;8.242;2022-09-12T16:37:14;30.10;57.60
47857;DHT22;33618;49.972;8.242;2022-09-12T16:40:00;29.90;57.00
47857;DHT22;33618;49.972;8.242;2022-09-12T16:42:46;29.60;57.50
47857;DHT22;33618;49.972;8.242;2022-09-12T16:45:32;29.60;57.40
47857;DHT22;33618;49.972;8.242;2022-09-12T16:48:18;29.40;57.00
47857;DHT22;33618;49.972;8.242;2022-09-12T16:51:04;28.80;58.90
47857;DHT22;33618;49.972;8.242;2022-09-12T16:53:51;28.40;59.10
47857;DHT22;33618;49.972;8.242;2022-09-12T16:56:36;28.00;59.60
47857;DHT22;33618;49.972;8.242;2022-09-12T16:59:23;27.60;59.70
47857;DHT22;33618;49.972;8.242;2022-09-12T17:14:06;26.20;62.70
47857;DHT22;33618;49.972;8.242;2022-09-12T17:16:52;25.90;63.50
47857;DHT22;33618;49.972;8.242;2022-09-12T17:19:38;25.80;64.30
47857;DHT22;33618;49.972;8.242;2022-09-12T17:22:23;25.50;64.60
47857;DHT22;33618;49.972;8.242;2022-09-12T17:25:14;25.20;65.10
47857;DHT22;33618;49.972;8.242;2022-09-12T17:27:59;25.00;65.40
47857;DHT22;33618;49.972;8.242;2022-09-12T17:30:45;24.80;66.00
47857;DHT22;33618;49.972;8.242;2022-09-12T17:33:31;24.90;66.80
47857;DHT22;33618;49.972;8.242;2022-09-12T17:36:17;24.80;67.50
47857;DHT22;33618;49.972;8.242;2022-09-12T17:39:03;24.70;67.70
47857;DHT22;33618;49.972;8.242;2022-09-12T17:41:49;24.50;68.00
47857;DHT22;33618;49.972;8.242;2022-09-12T17:44:35;24.30;68.90
47857;DHT22;33618;49.972;8.242;2022-09-12T17:47:21;24.10;68.40
47857;DHT22;33618;49.972;8.242;2022-09-12T17:50:08;23.90;68.50
47857;DHT22;33618;49.972;8.242;2022-09-12T17:53:13;23.80;69.40
47857;DHT22;33618;49.972;8.242;2022-09-12T17:56:03;23.60;69.10
47857;DHT22;33618;49.972;8.242;2022-09-12T17:58:49;23.30;71.40
47857;DHT22;33618;49.972;8.242;2022-09-12T18:09:19;22.80;75.60
47857;DHT22;33618;49.972;8.242;2022-09-12T18:12:06;22.50;77.50
47857;DHT22;33618;49.972;8.242;2022-09-12T18:14:52;22.30;78.50
47857;DHT22;33618;49.972;8.242;2022-09-12T18:17:38;22.20;80.10
47857;DHT22;33618;49.972;8.242;2022-09-12T18:20:24;22.10;80.60
47857;DHT22;33618;49.972;8.242;2022-09-12T18:23:09;21.90;82.10
47857;DHT22;33618;49.972;8.242;2022-09-12T18:26:08;22.00;84.10
47857;DHT22;33618;49.972;8.242;2022-09-12T18:28:54;21.80;85.40
47857;DHT22;33618;49.972;8.242;2022-09-12T18:31:41;21.60;86.40
47857;DHT22;33618;49.972;8.242;2022-09-12T18:34:27;21.40;88.00
47857;DHT22;33618;49.972;8.242;2022-09-12T18:37:39;21.50;89.20
47857;DHT22;33618;49.972;8.242;2022-09-12T18:40:48;21.40;88.70
47857;DHT22;33618;49.972;8.242;2022-09-12T18:52:53;21.30;91.90
47857;DHT22;33618;49.972;8.242;2022-09-12T18:55:44;21.20;92.70
47857;DHT22;33618;49.972;8.242;2022-09-12T18:58:29;21.00;92.70
47857;DHT22;33618;49.972;8.242;2022-09-12T19:01:26;20.90;93.00
47857;DHT22;33618;49.972;8.242;2022-09-12T19:07:54;20.70;94.00
47857;DHT22;33618;49.972;8.242;2022-09-12T19:10:39;20.60;94.50
47857;DHT22;33618;49.972;8.242;2022-09-12T19:13:25;20.70;94.50
47857;DHT22;33618;49.972;8.242;2022-09-12T19:16:14;20.70;95.20
47857;DHT22;33618;49.972;8.242;2022-09-12T19:19:01;20.50;95.30
47857;DHT22;33618;49.972;8.242;2022-09-12T19:21:47;20.40;95.80
47857;DHT22;33618;49.972;8.242;2022-09-12T19:24:33;20.20;96.60
47857;DHT22;33618;49.972;8.242;2022-09-12T19:27:19;20.20;97.20
47857;DHT22;33618;49.972;8.242;2022-09-12T19:30:05;20.20;97.20
47857;DHT22;33618;49.972;8.242;2022-09-12T19:32:51;20.50;97.10
47857;DHT22;33618;49.972;8.242;2022-09-12T19:35:36;20.40;97.50
47857;DHT22;33618;49.972;8.242;2022-09-12T19:38:22;20.30;97.60
47857;DHT22;33618;49.972;8.242;2022-09-12T19:41:10;20.30;97.90
47857;DHT22;33618;49.972;8.242;2022-09-12T19:43:59;20.20;98.20
47857;DHT22;33618;49.972;8.242;2022-09-12T19:46:46;19.80;98.90
47857;DHT22;33618;49.972;8.242;2022-09-12T19:49:32;19.60;99.20
47857;DHT22;33618;49.972;8.242;2022-09-12T19:52:17;19.60;99.80
47857;DHT22;33618;49.972;8.242;2022-09-12T19:55:03;19.50;99.70
47857;DHT22;33618;49.972;8.242;2022-09-12T19:57:48;19.50;99.90
47857;DHT22;33618;49.972;8.242;2022-09-12T20:00:34;19.40;99.80
47857;DHT22;33618;49.972;8.242;2022-09-12T20:15:10;19.10;99.90
47857;DHT22;33618;49.972;8.242;2022-09-12T20:17:56;19.00;99.90
47857;DHT22;33618;49.972;8.242;2022-09-12T20:20:42;19.10;99.90
47857;DHT22;33618;49.972;8.242;2022-09-12T20:23:27;19.00;99.90
47857;DHT22;33618;49.972;8.242;2022-09-12T20:26:13;19.00;99.90
47857;DHT22;33618;49.972;8.242;2022-09-12T20:36:42;18.70;99.90
47857;DHT22;33618;49.972;8.242;2022-09-12T20:39:27;18.60;99.90
47857;DHT22;33618;49.972;8.242;2022-09-12T20:42:12;18.60;99.90
47857;DHT22;33618;49.972;8.242;2022-09-12T20:44:58;18.60;99.90
47857;DHT22;33618;49.972;8.242;2022-09-12T20:47:43;18.40;99.90
47857;DHT22;33618;49.972;8.242;2022-09-12T20:50:28;18.40;99.90
47857;DHT22;33618;49.972;8.242;2022-09-12T20:53:14;18.30;99.90
47857;DHT22;33618;49.972;8.242;2022-09-12T20:55:59;18.50;99.90
47857;DHT22;33618;49.972;8.242;2022-09-12T20:58:45;18.60;99.90
47857;DHT22;33618;49.972;8.242;2022-09-12T21:01:31;18.60;99.90
47857;DHT22;33618;49.972;8.242;2022-09-12T21:11:58;18.10;99.90
47857;DHT22;33618;49.972;8.242;2022-09-12T21:14:44;17.90;99.90
47857;DHT22;33618;49.972;8.242;2022-09-12T21:17:29;17.90;99.90
47857;DHT22;33618;49.972;8.242;2022-09-12T21:20:15;17.80;99.90
47857;DHT22;33618;49.972;8.242;2022-09-12T21:23:00;18.00;99.90
47857;DHT22;33618;49.972;8.242;2022-09-12T21:25:46;18.00;99.90
47857;DHT22;33618;49.972;8.242;2022-09-12T21:28:36;18.00;99.90
47857;DHT22;33618;49.972;8.242;2022-09-12T21:31:23;17.70;99.90
47857;DHT22;33618;49.972;8.242;2022-09-12T21:34:09;17.80;99.90
47857;DHT22;33618;49.972;8.242;2022-09-12T21:36:54;18.00;99.90
47857;DHT22;33618;49.972;8.242;2022-09-12T21:39:40;17.80;99.90
47857;DHT22;33618;49.972;8.242;2022-09-12T21:42:25;17.60;99.90
47857;DHT22;33618;49.972;8.242;2022-09-12T21:45:11;17.60;99.90
47857;DHT22;33618;49.972;8.242;2022-09-12T21:47:57;17.50;99.90
47857;DHT22;33618;49.972;8.242;2022-09-12T21:50:48;17.70;99.90
47857;DHT22;33618;49.972;8.242;2022-09-12T21:53:34;17.60;99.90
47857;DHT22;33618;49.972;8.242;2022-09-12T21:56:19;17.60;99.90
47857;DHT22;33618;49.972;8.242;2022-09-12T21:59:05;17.50;99.90
47857;DHT22;33618;49.972;8.242;2022-09-12T22:01:51;17.40;99.90
47857;DHT22;33618;49.972;8.242;2022-09-12T22:08:19;17.30;99.90
47857;DHT22;33618;49.972;8.242;2022-09-12T22:11:06;17.20;99.90
47857;DHT22;33618;49.972;8.242;2022-09-12T22:13:54;17.20;99.90
47857;DHT22;33618;49.972;8.242;2022-09-12T22:16:39;17.30;99.90
47857;DHT22;33618;49.972;8.242;2022-09-12T22:19:25;17.20;99.90
47857;DHT22;33618;49.972;8.242;2022-09-12T22:22:10;17.10;99.90
47857;DHT22;33618;49.972;8.242;2022-09-12T22:25:14;17.10;99.90
47857;DHT22;33618;49.972;8.242;2022-09-12T22:28:00;17.10;99.90
47857;DHT22;33618;49.972;8.242;2022-09-12T22:30:46;17.10;99.90
47857;DHT22;33618;49.972;8.242;2022-09-12T22:33:32;17.00;99.90
47857;DHT22;33618;49.972;8.242;2022-09-12T22:36:18;16.90;99.90
47857;DHT22;33618;49.972;8.242;2022-09-12T22:39:03;16.90;99.90
47857;DHT22;33618;49.972;8.242;2022-09-12T22:41:51;17.00;99.90
47857;DHT22;33618;49.972;8.242;2022-09-12T22:44:36;17.00;99.90
47857;DHT22;33618;49.972;8.242;2022-09-12T22:47:22;16.90;99.90
47857;DHT22;33618;49.972;8.242;2022-09-12T22:50:07;16.90;99.90
47857;DHT22;33618;49.972;8.242;2022-09-12T22:52:53;16.80;99.90
47857;DHT22;33618;49.972;8.242;2022-09-12T22:55:38;16.80;99.90
47857;DHT22;33618;49.972;8.242;2022-09-12T22:58:24;16.70;99.90
47857;DHT22;33618;49.972;8.242;2022-09-12T23:01:10;16.60;99.90
47857;DHT22;33618;49.972;8.242;2022-09-12T23:11:37;16.70;99.90
47857;DHT22;33618;49.972;8.242;2022-09-12T23:14:23;16.50;99.90
47857;DHT22;33618;49.972;8.242;2022-09-12T23:17:08;16.40;99.90
47857;DHT22;33618;49.972;8.242;2022-09-12T23:19:54;16.40;99.90
47857;DHT22;33618;49.972;8.242;2022-09-12T23:22:39;16.40;99.90
47857;DHT22;33618;49.972;8.242;2022-09-12T23:25:25;16.30;99.90